createdAt,value
2018-09-17T00:01:23.760Z,91.80
2018-09-17T00:03:51.607Z,92.00
2018-09-17T00:06:19.483Z,92.00
2018-09-17T00:08:47.417Z,91.80
2018-09-17T00:11:15.537Z,92.00
2018-09-17T00:13:43.414Z,92.20
2018-09-17T00:16:11.321Z,92.40
2018-09-17T00:18:39.184Z,92.60
2018-09-17T00:21:07.006Z,92.30
2018-09-17T00:23:34.861Z,92.30
2018-09-17T00:26:03.395Z,92.10
2018-09-17T00:28:31.265Z,91.80
2018-09-17T00:30:59.148Z,92.00
2018-09-17T00:33:26.981Z,91.90
2018-09-17T00:35:54.815Z,91.80
2018-09-17T00:38:22.606Z,91.90
2018-09-17T00:40:50.434Z,92.00
2018-09-17T00:43:18.268Z,92.10
2018-09-17T00:45:46.137Z,92.40
2018-09-17T00:48:14.007Z,92.40
2018-09-17T00:50:41.845Z,92.30
2018-09-17T00:53:09.660Z,92.30
2018-09-17T00:55:37.473Z,92.20
2018-09-17T00:58:05.520Z,92.10
2018-09-17T01:00:33.375Z,92.30
2018-09-17T01:03:01.210Z,92.20
2018-09-17T01:05:29.016Z,92.30
2018-09-17T01:07:56.823Z,92.30
2018-09-17T01:10:24.647Z,92.30
2018-09-17T01:12:52.483Z,92.30
2018-09-17T01:15:20.922Z,92.30
2018-09-17T01:17:48.728Z,92.20
2018-09-17T01:20:16.809Z,92.10
2018-09-17T01:22:44.694Z,92.00
2018-09-17T01:25:13.495Z,91.60
2018-09-17T01:27:41.650Z,91.60
2018-09-17T01:30:09.536Z,91.60
2018-09-17T01:32:37.410Z,91.70
2018-09-17T01:35:05.447Z,91.60
2018-09-17T01:37:33.245Z,91.80
2018-09-17T01:40:01.093Z,92.20
2018-09-17T01:42:29.089Z,92.10
2018-09-17T01:44:56.971Z,92.30
2018-09-17T01:47:24.776Z,92.10
2018-09-17T01:49:52.653Z,92.40
2018-09-17T01:52:20.584Z,92.50
2018-09-17T01:54:48.380Z,92.40
2018-09-17T01:57:16.420Z,92.30
2018-09-17T01:59:44.235Z,92.20
2018-09-17T02:02:12.752Z,92.60
2018-09-17T02:04:40.783Z,92.30
2018-09-17T02:07:08.659Z,92.10
2018-09-17T02:09:40.471Z,92.30
2018-09-17T02:12:10.628Z,92.20
2018-09-17T02:14:38.892Z,92.40
2018-09-17T02:17:07.145Z,92.50
2018-09-17T02:19:35.207Z,92.50
2018-09-17T02:22:03.072Z,92.50
2018-09-17T02:24:31.273Z,92.30
2018-09-17T02:26:59.196Z,92.20
2018-09-17T02:29:27.019Z,92.30
2018-09-17T02:31:55.057Z,92.20
2018-09-17T02:34:22.934Z,92.10
2018-09-17T02:36:51.006Z,92.10
2018-09-17T02:39:18.864Z,92.20
2018-09-17T02:41:46.748Z,92.10
2018-09-17T02:44:14.601Z,92.10
2018-09-17T02:46:42.440Z,92.40
2018-09-17T02:49:10.327Z,92.30
2018-09-17T02:51:38.247Z,92.40
2018-09-17T02:54:06.124Z,92.30
2018-09-17T02:56:34.669Z,92.40
2018-09-17T02:59:03.157Z,92.40
2018-09-17T03:01:31.059Z,92.20
2018-09-17T03:03:58.932Z,92.00
2018-09-17T03:06:26.776Z,92.20
2018-09-17T03:08:54.690Z,92.40
2018-09-17T03:11:22.634Z,92.40
2018-09-17T03:13:50.524Z,92.50
2018-09-17T03:16:19.117Z,92.40
2018-09-17T03:18:52.048Z,92.40
2018-09-17T03:21:19.927Z,92.40
2018-09-17T03:23:47.964Z,92.40
2018-09-17T03:26:16.950Z,92.20
2018-09-17T03:28:45.362Z,92.10
2018-09-17T03:31:13.192Z,92.20
2018-09-17T03:33:41.024Z,92.20
2018-09-17T03:36:08.825Z,92.20
2018-09-17T03:38:46.807Z,92.50
2018-09-17T03:41:16.240Z,92.70
2018-09-17T03:43:45.781Z,92.50
2018-09-17T03:46:13.644Z,92.40
2018-09-17T03:48:41.751Z,92.40
2018-09-17T03:51:10.235Z,92.40
2018-09-17T03:53:38.674Z,92.40
2018-09-17T03:56:06.511Z,92.30
2018-09-17T03:58:34.303Z,92.20
2018-09-17T04:01:02.743Z,92.30
2018-09-17T04:03:30.924Z,92.30
2018-09-17T04:05:59.080Z,92.20
2018-09-17T04:08:28.268Z,92.30
2018-09-17T04:10:56.468Z,92.00
2018-09-17T04:13:24.747Z,92.20
2018-09-17T04:15:52.669Z,92.30
2018-09-17T04:18:20.522Z,92.30
2018-09-17T04:20:48.328Z,92.10
2018-09-17T04:23:30.144Z,92.50
2018-09-17T04:25:58.099Z,92.40
2018-09-17T04:28:25.926Z,92.40
2018-09-17T04:30:54.044Z,92.50
2018-09-17T04:33:22.473Z,92.70
2018-09-17T04:35:50.285Z,92.60
2018-09-17T04:38:18.140Z,92.40
2018-09-17T04:40:45.970Z,92.50
2018-09-17T04:43:13.864Z,92.60
2018-09-17T04:45:41.972Z,92.50
2018-09-17T04:48:09.810Z,92.50
2018-09-17T04:50:37.619Z,92.90
2018-09-17T04:53:05.473Z,92.50
2018-09-17T04:55:33.281Z,92.60
2018-09-17T04:58:01.090Z,92.60
2018-09-17T05:00:28.948Z,92.60
2018-09-17T05:02:56.787Z,92.60
2018-09-17T05:05:24.925Z,92.70
2018-09-17T05:07:52.787Z,92.50
2018-09-17T05:10:20.639Z,92.40
2018-09-17T05:12:48.531Z,92.70
2018-09-17T05:15:16.784Z,93.00
2018-09-17T05:17:44.651Z,93.10
2018-09-17T05:20:12.521Z,93.20
2018-09-17T05:22:40.381Z,93.00
2018-09-17T05:25:08.568Z,93.00
2018-09-17T05:27:36.827Z,93.30
2018-09-17T05:30:05.073Z,93.40
2018-09-17T05:32:33.673Z,93.50
2018-09-17T05:35:01.574Z,93.50
2018-09-17T05:37:29.424Z,93.30
2018-09-17T05:39:58.324Z,93.20
2018-09-17T05:42:26.178Z,93.10
2018-09-17T05:44:54.170Z,93.20
2018-09-17T05:47:22.015Z,93.30
2018-09-17T05:49:49.846Z,93.50
2018-09-17T05:52:17.722Z,93.50
2018-09-17T05:54:45.923Z,93.40
2018-09-17T05:57:14.455Z,93.80
2018-09-17T05:59:42.341Z,93.90
2018-09-17T06:02:11.922Z,93.90
2018-09-17T06:04:39.854Z,94.00
2018-09-17T06:07:07.750Z,94.00
2018-09-17T06:09:36.138Z,94.10
2018-09-17T06:12:03.973Z,94.00
2018-09-17T06:14:32.114Z,93.90
2018-09-17T06:16:59.990Z,94.00
2018-09-17T06:19:27.891Z,93.90
2018-09-17T06:21:56.231Z,94.20
2018-09-17T06:24:24.099Z,94.00
2018-09-17T06:26:52.004Z,93.80
2018-09-17T06:29:19.836Z,93.80
2018-09-17T06:31:47.661Z,93.40
2018-09-17T06:34:15.528Z,93.30
2018-09-17T06:36:43.404Z,92.90
2018-09-17T06:39:11.549Z,92.80
2018-09-17T06:41:39.494Z,93.10
2018-09-17T06:44:07.758Z,93.10
2018-09-17T06:46:35.607Z,92.70
2018-09-17T06:49:03.513Z,92.70
2018-09-17T06:51:31.385Z,92.30
2018-09-17T06:53:59.860Z,92.30
2018-09-17T06:56:27.779Z,92.40
2018-09-17T06:58:55.634Z,92.50
2018-09-17T07:01:23.497Z,92.40
2018-09-17T07:03:51.409Z,92.00
2018-09-17T07:06:20.233Z,92.20
2018-09-17T07:08:48.143Z,92.00
2018-09-17T07:11:15.989Z,92.00
2018-09-17T07:13:43.880Z,92.10
2018-09-17T07:16:11.728Z,92.00
2018-09-17T07:18:39.608Z,91.90
2018-09-17T07:21:07.501Z,91.70
2018-09-17T07:23:36.113Z,91.30
2018-09-17T07:26:04.458Z,91.10
2018-09-17T07:28:32.599Z,91.10
2018-09-17T07:31:00.593Z,90.80
2018-09-17T07:33:28.804Z,91.10
2018-09-17T07:35:56.711Z,90.80
2018-09-17T07:38:24.525Z,90.90
2018-09-17T07:40:52.619Z,90.60
2018-09-17T07:43:20.455Z,90.60
2018-09-17T07:45:48.313Z,90.10
2018-09-17T07:48:16.185Z,90.10
2018-09-17T07:50:44.255Z,90.10
2018-09-17T07:53:12.173Z,89.30
2018-09-17T07:55:40.916Z,89.50
2018-09-17T07:58:09.055Z,90.00
2018-09-17T08:00:36.910Z,90.00
2018-09-17T08:03:05.185Z,90.30
2018-09-17T08:05:33.105Z,90.20
2018-09-17T08:08:00.928Z,90.20
2018-09-17T08:10:28.840Z,90.50
2018-09-17T08:12:56.733Z,90.50
2018-09-17T08:15:24.622Z,90.20
2018-09-17T08:17:52.762Z,90.50
2018-09-17T08:20:20.629Z,90.20
2018-09-17T08:22:49.263Z,90.20
2018-09-17T08:25:17.108Z,90.10
2018-09-17T08:27:44.979Z,90.40
2018-09-17T08:30:13.319Z,89.20
2018-09-17T08:32:41.222Z,89.60
2018-09-17T08:35:09.266Z,90.10
2018-09-17T08:37:37.164Z,90.30
2018-09-17T08:40:05.816Z,90.30
2018-09-17T08:42:34.076Z,90.10
2018-09-17T08:45:01.918Z,89.20
2018-09-17T08:47:29.774Z,90.60
2018-09-17T08:49:58.317Z,90.50
2018-09-17T08:52:26.804Z,90.50
2018-09-17T08:55:02.644Z,90.70
2018-09-17T08:57:36.234Z,90.30
2018-09-17T09:00:12.156Z,90.10
2018-09-17T09:02:45.659Z,90.20
2018-09-17T09:05:19.882Z,90.10
2018-09-17T09:07:50.670Z,90.20
2018-09-17T09:10:25.716Z,88.70
2018-09-17T09:12:59.913Z,88.10
2018-09-17T09:15:34.291Z,88.00
2018-09-17T09:18:03.194Z,87.30
2018-09-17T09:20:31.079Z,87.30
2018-09-17T09:22:58.992Z,87.20
2018-09-17T09:25:26.882Z,86.50
2018-09-17T09:27:54.946Z,85.60
2018-09-17T09:30:23.023Z,86.50
2018-09-17T09:32:50.914Z,86.80
2018-09-17T09:35:18.948Z,86.80
2018-09-17T09:37:46.829Z,86.00
2018-09-17T09:40:14.743Z,86.30
2018-09-17T09:42:43.404Z,84.70
2018-09-17T09:45:11.291Z,87.50
2018-09-17T09:47:39.140Z,85.70
2018-09-17T09:50:07.304Z,86.40
2018-09-17T09:52:35.225Z,87.90
2018-09-17T09:55:03.073Z,88.30
2018-09-17T09:57:31.814Z,87.00
2018-09-17T09:59:59.700Z,87.30
2018-09-17T10:02:30.538Z,86.50
2018-09-17T10:04:58.708Z,85.40
2018-09-17T10:07:26.565Z,86.00
2018-09-17T10:10:00.974Z,85.90
2018-09-17T10:12:34.536Z,87.00
2018-09-17T10:15:08.881Z,85.10
2018-09-17T10:17:42.433Z,84.50
2018-09-17T10:20:10.316Z,85.60
2018-09-17T10:22:38.261Z,85.50
2018-09-17T10:25:06.157Z,86.30
2018-09-17T10:27:34.284Z,84.80
2018-09-17T10:30:02.244Z,84.20
2018-09-17T10:32:30.701Z,83.60
2018-09-17T10:34:58.922Z,85.10
2018-09-17T10:37:26.844Z,84.90
2018-09-17T10:39:54.878Z,81.40
2018-09-17T10:42:22.795Z,83.60
2018-09-17T10:44:50.717Z,83.80
2018-09-17T10:47:18.643Z,83.50
2018-09-17T10:49:46.530Z,82.50
2018-09-17T10:52:14.705Z,83.60
2018-09-17T10:54:42.630Z,82.70
2018-09-17T10:57:10.552Z,81.60
2018-09-17T10:59:38.720Z,82.40
2018-09-17T11:02:07.689Z,82.50
2018-09-17T11:04:35.599Z,80.60
2018-09-17T11:07:04.687Z,80.00
2018-09-17T11:09:32.882Z,80.20
2018-09-17T11:12:00.829Z,79.40
2018-09-17T11:14:28.700Z,80.60
2018-09-17T11:16:56.591Z,77.90
2018-09-17T11:19:24.455Z,79.50
2018-09-17T11:21:52.356Z,80.30
2018-09-17T11:24:20.804Z,79.00
2018-09-17T11:26:48.839Z,80.50
2018-09-17T11:29:16.988Z,77.50
2018-09-17T11:31:45.623Z,76.60
2018-09-17T11:34:13.567Z,76.20
2018-09-17T11:36:41.504Z,76.00
2018-09-17T11:39:10.554Z,73.90
2018-09-17T11:41:39.838Z,76.20
2018-09-17T11:44:08.365Z,76.60
2018-09-17T11:46:37.438Z,72.70
2018-09-17T11:49:05.587Z,74.80
2018-09-17T11:51:33.480Z,73.40
2018-09-17T11:54:01.792Z,73.80
2018-09-17T11:56:29.609Z,71.90
2018-09-17T11:58:57.448Z,71.50
2018-09-17T12:01:30.828Z,70.70
2018-09-17T12:04:05.491Z,70.00
2018-09-17T12:06:38.992Z,70.90
2018-09-17T12:09:09.127Z,67.70
2018-09-17T12:11:36.964Z,66.90
2018-09-17T12:14:05.871Z,67.10
2018-09-17T12:16:34.261Z,67.90
2018-09-17T12:19:02.133Z,68.70
2018-09-17T12:21:30.042Z,67.60
2018-09-17T12:23:57.971Z,67.10
2018-09-17T12:26:26.121Z,66.60
2018-09-17T12:28:53.979Z,69.10
2018-09-17T12:31:22.491Z,67.00
2018-09-17T12:33:50.457Z,64.10
2018-09-17T12:36:18.258Z,67.10
2018-09-17T12:38:46.356Z,64.90
2018-09-17T12:41:14.549Z,64.60
2018-09-17T12:43:42.412Z,65.50
2018-09-17T12:46:10.273Z,64.70
2018-09-17T12:48:38.107Z,63.30
2018-09-17T12:51:05.952Z,62.40
2018-09-17T12:53:33.885Z,63.10
2018-09-17T12:56:01.739Z,61.70
2018-09-17T12:58:29.595Z,63.10
2018-09-17T13:00:57.437Z,63.50
2018-09-17T13:03:25.362Z,64.30
2018-09-17T13:05:53.138Z,65.30
2018-09-17T13:08:20.958Z,65.70
2018-09-17T13:10:49.080Z,65.50
2018-09-17T13:13:17.040Z,65.90
2018-09-17T13:15:51.976Z,67.20
2018-09-17T13:18:20.834Z,67.20
2018-09-17T13:20:48.688Z,69.00
2018-09-17T13:23:16.557Z,66.90
2018-09-17T13:25:44.608Z,66.80
2018-09-17T13:28:12.441Z,67.30
2018-09-17T13:30:40.480Z,68.10
2018-09-17T13:33:08.391Z,70.40
2018-09-17T13:35:36.318Z,69.30
2018-09-17T13:38:04.284Z,69.10
2018-09-17T13:40:32.468Z,69.50
2018-09-17T13:43:00.325Z,72.30
2018-09-17T13:45:28.421Z,69.90
2018-09-17T13:47:56.267Z,72.50
2018-09-17T13:50:24.117Z,71.30
2018-09-17T13:52:51.998Z,70.80
2018-09-17T13:55:19.851Z,71.00
2018-09-17T13:57:47.743Z,70.60
2018-09-17T14:00:15.633Z,69.80
2018-09-17T14:02:43.490Z,69.80
2018-09-17T14:05:11.349Z,70.00
2018-09-17T14:07:39.508Z,70.50
2018-09-17T14:10:07.453Z,70.80
2018-09-17T14:12:35.356Z,71.00
2018-09-17T14:15:03.380Z,70.20
2018-09-17T14:17:31.258Z,71.30
2018-09-17T14:19:59.723Z,70.10
2018-09-17T14:22:27.752Z,69.80
2018-09-17T14:24:56.319Z,69.70
2018-09-17T14:27:24.273Z,69.20
2018-09-17T14:29:52.805Z,69.90
2018-09-17T14:32:26.194Z,68.70
2018-09-17T14:34:54.060Z,68.70
2018-09-17T14:37:21.900Z,69.80
2018-09-17T14:39:49.795Z,70.00
2018-09-17T14:42:17.700Z,69.70
2018-09-17T14:44:45.692Z,68.70
2018-09-17T14:47:13.545Z,68.60
2018-09-17T14:49:41.411Z,68.50
2018-09-17T14:52:09.331Z,68.60
2018-09-17T14:54:37.252Z,69.10
2018-09-17T14:57:05.878Z,69.80
2018-09-17T14:59:34.069Z,69.60
2018-09-17T15:02:01.931Z,69.40
2018-09-17T15:04:29.873Z,69.50
2018-09-17T15:06:57.791Z,68.90
2018-09-17T15:09:25.633Z,69.10
2018-09-17T15:11:53.559Z,69.70
2018-09-17T15:14:21.726Z,69.30
2018-09-17T15:16:49.467Z,69.00
2018-09-17T15:19:18.283Z,68.40
2018-09-17T15:21:46.136Z,68.70
2018-09-17T15:24:13.991Z,68.90
2018-09-17T15:26:42.976Z,68.40
2018-09-17T15:29:10.871Z,68.60
2018-09-17T15:31:38.753Z,68.50
2018-09-17T15:34:06.686Z,68.30
2018-09-17T15:36:35.303Z,69.00
2018-09-17T15:39:05.146Z,68.20
2018-09-17T15:41:33.151Z,68.70
2018-09-17T15:44:00.868Z,68.70
2018-09-17T15:46:28.848Z,69.30
2018-09-17T15:48:56.690Z,70.00
2018-09-17T15:51:24.549Z,70.00
2018-09-17T15:53:52.421Z,69.40
2018-09-17T15:56:20.934Z,69.40
2018-09-17T15:58:48.715Z,69.30
2018-09-17T16:01:17.590Z,69.40
2018-09-17T16:03:45.468Z,70.00
2018-09-17T16:06:13.426Z,69.60
2018-09-17T16:08:42.188Z,70.50
2018-09-17T16:11:10.106Z,70.20
2018-09-17T16:13:38.621Z,70.60
2018-09-17T16:16:06.512Z,70.90
2018-09-17T16:18:34.358Z,70.80
2018-09-17T16:21:02.256Z,70.60
2018-09-17T16:23:30.112Z,70.50
2018-09-17T16:25:58.064Z,71.00
2018-09-17T16:28:25.933Z,71.20
2018-09-17T16:30:54.941Z,71.30
2018-09-17T16:33:23.536Z,71.10
2018-09-17T16:35:51.399Z,71.20
2018-09-17T16:38:19.316Z,70.80
2018-09-17T16:40:47.768Z,70.70
2018-09-17T16:43:15.726Z,70.70
2018-09-17T16:45:43.616Z,70.70
2018-09-17T16:48:11.633Z,70.60
2018-09-17T16:50:39.499Z,70.50
2018-09-17T16:53:07.457Z,70.60
2018-09-17T16:55:35.360Z,70.20
2018-09-17T16:58:03.239Z,70.40
2018-09-17T17:00:38.791Z,71.20
2018-09-17T17:03:06.688Z,70.60
2018-09-17T17:05:34.574Z,70.50
2018-09-17T17:08:02.462Z,70.70
2018-09-17T17:10:30.319Z,70.40
2018-09-17T17:12:58.234Z,70.80
2018-09-17T17:15:26.088Z,70.90
2018-09-17T17:17:54.128Z,71.10
2018-09-17T17:20:22.039Z,71.50
2018-09-17T17:22:49.904Z,71.70
2018-09-17T17:25:17.824Z,71.50
2018-09-17T17:27:46.008Z,71.80
2018-09-17T17:30:14.528Z,71.90
2018-09-17T17:32:42.476Z,72.20
2018-09-17T17:35:11.396Z,73.50
2018-09-17T17:37:39.286Z,75.00
2018-09-17T17:40:08.226Z,76.00
2018-09-17T17:42:35.994Z,76.60
2018-09-17T17:45:04.311Z,77.30
2018-09-17T17:47:32.180Z,77.90
2018-09-17T17:50:00.034Z,78.10
2018-09-17T17:52:27.943Z,78.00
2018-09-17T17:54:55.874Z,78.20
2018-09-17T17:57:23.703Z,78.30
2018-09-17T18:02:28.771Z,78.30
2018-09-17T18:04:56.712Z,78.70
2018-09-17T18:07:24.586Z,78.70
2018-09-17T18:09:52.441Z,79.30
2018-09-17T18:12:20.325Z,79.50
2018-09-17T18:14:48.225Z,79.70
2018-09-17T18:17:16.104Z,80.40
2018-09-17T18:19:43.973Z,80.10
2018-09-17T18:22:11.829Z,80.40
2018-09-17T18:24:39.714Z,80.80
2018-09-17T18:27:07.633Z,81.00
2018-09-17T18:29:35.529Z,81.00
2018-09-17T18:32:03.411Z,81.20
2018-09-17T18:34:31.346Z,81.30
2018-09-17T18:36:59.279Z,81.70
2018-09-17T18:39:28.250Z,81.60
2018-09-17T18:41:56.065Z,82.00
2018-09-17T18:44:23.941Z,82.20
2018-09-17T18:46:52.476Z,82.30
2018-09-17T18:49:20.896Z,82.10
2018-09-17T18:51:48.764Z,82.30
2018-09-17T18:54:16.963Z,82.30
2018-09-17T18:56:44.855Z,82.50
2018-09-17T18:59:12.748Z,83.20
2018-09-17T19:01:40.618Z,83.30
2018-09-17T19:04:09.764Z,83.90
2018-09-17T19:06:37.963Z,83.90
2018-09-17T19:09:07.257Z,84.10
2018-09-17T19:11:35.285Z,84.00
2018-09-17T19:14:09.559Z,85.00
2018-09-17T19:16:43.853Z,85.70
2018-09-17T19:19:11.756Z,85.50
2018-09-17T19:21:46.357Z,85.80
2018-09-17T19:24:14.148Z,85.60
2018-09-17T19:26:42.045Z,86.30
2018-09-17T19:29:17.523Z,85.90
2018-09-17T19:31:45.806Z,86.20
2018-09-17T19:34:13.970Z,86.40
2018-09-17T19:36:42.017Z,87.20
2018-09-17T19:39:16.132Z,88.20
2018-09-17T19:41:44.995Z,88.20
2018-09-17T19:44:13.090Z,88.60
2018-09-17T19:46:40.931Z,88.40
2018-09-17T19:49:09.704Z,88.20
2018-09-17T19:51:43.279Z,88.20
2018-09-17T19:54:11.469Z,88.70
2018-09-17T19:56:39.322Z,88.70
2018-09-17T19:59:13.671Z,89.60
2018-09-17T20:01:41.579Z,89.50
2018-09-17T20:04:15.085Z,89.50
2018-09-17T20:06:42.989Z,89.40
2018-09-17T20:09:11.557Z,89.80
2018-09-17T20:11:39.826Z,89.30
2018-09-17T20:14:07.887Z,89.30
2018-09-17T20:16:35.830Z,89.40
2018-09-17T20:19:03.733Z,89.30
2018-09-17T20:21:31.599Z,89.60
2018-09-17T20:23:59.555Z,89.50
2018-09-17T20:26:27.456Z,90.00
2018-09-17T20:28:55.375Z,90.00
2018-09-17T20:31:23.262Z,90.10
2018-09-17T20:33:51.172Z,89.70
2018-09-17T20:36:20.041Z,89.70
2018-09-17T20:38:48.041Z,89.70
2018-09-17T20:41:16.631Z,89.60
2018-09-17T20:43:44.547Z,90.00
2018-09-17T20:46:13.089Z,90.10
2018-09-17T20:48:41.266Z,90.40
2018-09-17T20:51:09.084Z,90.40
2018-09-17T20:53:37.773Z,90.30
2018-09-17T20:56:05.720Z,90.40
2018-09-17T20:58:33.513Z,90.40
2018-09-17T21:01:01.501Z,90.40
2018-09-17T21:03:29.235Z,90.50
2018-09-17T21:05:57.114Z,90.80
2018-09-17T21:08:25.008Z,90.80
2018-09-17T21:10:52.896Z,91.00
2018-09-17T21:13:21.157Z,91.00
2018-09-17T21:15:49.073Z,91.20
2018-09-17T21:18:17.235Z,91.30
2018-09-17T21:20:45.126Z,91.10
2018-09-17T21:23:13.008Z,91.20
2018-09-17T21:25:40.879Z,91.20
2018-09-17T21:28:09.003Z,91.40
2018-09-17T21:30:37.188Z,91.20
2018-09-17T21:33:05.101Z,90.90
2018-09-17T21:35:32.976Z,90.80
2018-09-17T21:38:00.831Z,90.80
2018-09-17T21:40:28.652Z,90.80
2018-09-17T21:42:56.886Z,90.80
2018-09-17T21:45:24.663Z,90.80
2018-09-17T21:47:52.545Z,90.80
2018-09-17T21:50:20.493Z,91.00
2018-09-17T21:52:48.357Z,90.80
2018-09-17T21:55:16.215Z,90.80
2018-09-17T21:57:44.892Z,90.90
2018-09-17T22:00:12.808Z,90.90
2018-09-17T22:02:40.663Z,90.90
2018-09-17T22:05:08.865Z,90.80
2018-09-17T22:07:37.700Z,91.00
2018-09-17T22:10:05.627Z,91.00
2018-09-17T22:12:33.815Z,91.00
2018-09-17T22:15:01.692Z,91.40
2018-09-17T22:19:55.943Z,91.30
2018-09-17T22:22:23.812Z,91.60
2018-09-17T22:24:51.631Z,91.80
2018-09-17T22:27:19.453Z,91.60
2018-09-17T22:29:47.280Z,91.60
2018-09-17T22:32:15.148Z,91.40
2018-09-17T22:34:43.006Z,91.40
2018-09-17T22:37:10.872Z,91.10
2018-09-17T22:39:38.753Z,91.20
2018-09-17T22:42:06.688Z,91.10
2018-09-17T22:44:34.481Z,91.10
2018-09-17T22:47:02.375Z,90.80
2018-09-17T22:49:30.286Z,91.10
2018-09-17T22:51:58.160Z,91.00
2018-09-17T22:54:25.978Z,91.00
2018-09-17T22:56:53.796Z,91.20
2018-09-17T22:59:21.651Z,91.30
2018-09-17T23:01:49.494Z,91.50
2018-09-17T23:04:17.329Z,91.60
2018-09-17T23:06:45.148Z,91.80
2018-09-17T23:09:12.997Z,91.70
2018-09-17T23:11:40.877Z,91.70
2018-09-17T23:14:08.727Z,91.70
2018-09-17T23:16:36.540Z,91.60
2018-09-17T23:19:04.385Z,91.60
2018-09-17T23:21:32.206Z,91.80
2018-09-17T23:24:00.037Z,91.90
2018-09-17T23:26:27.932Z,91.90
2018-09-17T23:28:55.772Z,92.00
2018-09-17T23:31:23.633Z,91.90
2018-09-17T23:33:51.482Z,92.10
2018-09-17T23:36:19.358Z,92.00
2018-09-17T23:38:47.252Z,92.00
2018-09-17T23:41:15.114Z,92.10
2018-09-17T23:43:43.049Z,92.10
2018-09-17T23:46:10.910Z,92.40
2018-09-17T23:48:38.751Z,92.30
2018-09-17T23:51:06.568Z,92.40
2018-09-17T23:53:34.373Z,92.50
2018-09-17T23:56:02.232Z,92.40
2018-09-17T23:58:30.071Z,92.20
